Weskan, KS (67762)

5:39 AM MDT on September 30, 2014 (GMT -0600)
Rattlesnake Ridge | Change Station
CLOSE
Current Station
Personal Weather Station
Location: Wallace, KS
Elevation: 3311 ft
Nearby Weather Stations

Elev 3311 ft 38.89 °N, 101.58 °W | Updated 7 seconds ago

Partly Cloudy
Partly Cloudy
46.1 °F
Feels Like 46 °F
N
1.0
Wind Variable Wind from West
Gusts 4.0 mph

Today
High -- | Low -- °F
--% Chance of Precip.
Yesterday
High -- | Low -- °F
Precip. -- in
6:42 AM 6:31 PM
Waxing Crescent, 36% visible
Pressure 29.75 in
Visibility 10.0 miles
Clouds Clear
Windchill 46 °F
Dew Point 43 °F
Humidity 90%
Rainfall 0.00 in
Snow Depth Not available.
UV 0.0 out of 12
Pollen 1.30 out of 12
Air Quality Not available.
Flu Activity Not available.
METAR KITR 301053Z AUTO 24007KT 10SM CLR 08/06 A2987 RMK AO2 SLP074 T00780056

More Conditions Fewer Conditions

Pressure 29.75 in
Visibility 10.0 miles
Clouds Clear
Windchill 46 °F
Dew Point 43 °F
Humidity 90%
Rainfall 0.00 in
Snow Depth Not available.
UV 0.0 out of 12
Pollen 1.30 out of 12
Air Quality Not available.
Flu Activity Not available.
METAR KITR 301053Z AUTO 24007KT 10SM CLR 08/06 A2987 RMK AO2 SLP074 T00780056

More Conditions Fewer Conditions

10-Day Weather Forecast

Almanac

Astronomy

Sep. 30, 2014 Rise Set
Actual Time 6:42 AM MDT 6:31 PM MDT
Civil Twilight 6:16 AM MDT 6:58 PM MDT
Nautical Twilight 5:45 AM MDT 7:29 PM MDT
Astronomical Twilight 5:14 AM MDT 8:00 PM MDT
Moon 12:50 PM MDT 11:06 PM MDT
Length of Visible Light 12h 42m
Length of Day
11h 49m
Tomorrow will be 2m 30s shorter.
Waxing Crescent, 36% of the Moon is Illuminated
Today
Waxing Crescent
Oct 1
First Quarter
Oct 8
Full
Oct 15
Last Quarter
Oct 23
New

Today's Extremes

State Highs State Lows

Community

WunderPhotos

Upload Photos

1,757,618 photos uploaded!

Nearby

Snow Depth

Station Depth Elevation
No new snow has been reported.

Earthquake Activity

City Distance Mag. Time & Date
No recent earthquake activity has been reported nearby.
Minimum magnitude displayed is 2.5.

Coastal Water Temperatures

Place Temperature
No Stations Reporting

Nearby Weather Stations